SSGX weather

Fazenda Rio Negro Airport
Aquidauana, Mato Grosso do Sul, Brazil

Public forecast

Using degrees Celsius for public forecast. Weather courtesy of forecast.io.

Closest aviation weather report (METAR) to Fazenda Rio Negro Airport

Report is more than 6 hours old.

Closest report is Fazenda Alegrete - Retiro Carabda Airport, 42.8 nm (79.3 km) SE. Retrieved 2015/04/14 13:00 UTC (5 years ago):

SSQU 141300Z VRB03KT CAVOK 18/07 Q1028 NOSIG RMK PP000

Closest aviation forecast (TAF) to Fazenda Rio Negro Airport

Forecast is more than 6 hours old.

Closest forecast is Corumbá International Airport, 87.4 nm (161.9 km) WNW. Retrieved 2020/08/05 18:00 UTC (8 hours ago):

TAF SBCR 051500Z 0518/0618 04010KT CAVOK TN20/0608Z TX34/0618Z PROB40 TEMPO 0518/0520 5000 FU NSC BECMG 0520/0522 08005KT BECMG 0612/0614 04010KT RMK PER